O61 weather

Cameron Park Airport
Cameron Park, California, United States

Public forecast

Using degrees Fahrenheit for public forecast. Weather courtesy of forecast.io.

Closest aviation weather report (METAR) to Cameron Park Airport

Closest report is Placerville Airport, 11.3 nm (20.9 km) ENE. Retrieved 2020/03/31 06:55 UTC (9 minutes ago):

KPVF 310655Z AUTO 12005KT 10SM 08/05 A3029 RMK AO1

Closest aviation forecast (TAF) to Cameron Park Airport

Closest forecast is Sacramento Mather Airport, 16.5 nm (30.6 km) WSW. Retrieved 2020/03/31 06:22 UTC (42 minutes ago):

TAF KMHR 310520Z 3106/0106 19006KT P6SM SCT100 FM310800 16005KT P6SM BKN100 FM312100 21009KT P6SM SCT050 BKN250 FM010300 20006KT P6SM SCT250 AMD NOT SKED